sensor_id;sensor_type;location;lat;lon;timestamp;temperature;humidity
17986;DHT22;9118;48.122;11.546;2022-08-19T00:01:39;18.60;99.90
17986;DHT22;9118;48.122;11.546;2022-08-19T00:04:08;18.60;99.90
17986;DHT22;9118;48.122;11.546;2022-08-19T00:06:36;18.60;99.90
17986;DHT22;9118;48.122;11.546;2022-08-19T00:09:07;18.70;99.90
17986;DHT22;9118;48.122;11.546;2022-08-19T00:11:35;18.70;99.90
17986;DHT22;9118;48.122;11.546;2022-08-19T00:14:03;18.70;99.90
17986;DHT22;9118;48.122;11.546;2022-08-19T00:16:32;18.70;99.90
17986;DHT22;9118;48.122;11.546;2022-08-19T00:18:59;18.70;99.90
17986;DHT22;9118;48.122;11.546;2022-08-19T00:21:26;18.70;99.90
17986;DHT22;9118;48.122;11.546;2022-08-19T00:23:54;18.70;99.90
17986;DHT22;9118;48.122;11.546;2022-08-19T00:26:25;18.60;99.90
17986;DHT22;9118;48.122;11.546;2022-08-19T00:28:58;18.50;99.90
17986;DHT22;9118;48.122;11.546;2022-08-19T00:31:26;18.50;99.90
17986;DHT22;9118;48.122;11.546;2022-08-19T00:33:53;18.60;99.90
17986;DHT22;9118;48.122;11.546;2022-08-19T00:36:20;18.50;99.90
17986;DHT22;9118;48.122;11.546;2022-08-19T00:38:47;18.50;99.90
17986;DHT22;9118;48.122;11.546;2022-08-19T00:41:19;18.50;99.90
17986;DHT22;9118;48.122;11.546;2022-08-19T00:43:59;18.50;99.90
17986;DHT22;9118;48.122;11.546;2022-08-19T00:46:26;18.60;99.90
17986;DHT22;9118;48.122;11.546;2022-08-19T00:48:54;18.60;99.90
17986;DHT22;9118;48.122;11.546;2022-08-19T00:51:22;18.40;99.90
17986;DHT22;9118;48.122;11.546;2022-08-19T00:53:53;18.70;99.90
17986;DHT22;9118;48.122;11.546;2022-08-19T00:56:21;18.70;99.90
17986;DHT22;9118;48.122;11.546;2022-08-19T00:58:49;18.60;99.90
17986;DHT22;9118;48.122;11.546;2022-08-19T01:01:17;18.70;99.90
17986;DHT22;9118;48.122;11.546;2022-08-19T01:03:45;18.60;99.90
17986;DHT22;9118;48.122;11.546;2022-08-19T01:06:12;18.60;99.90
17986;DHT22;9118;48.122;11.546;2022-08-19T01:08:42;18.60;99.90
17986;DHT22;9118;48.122;11.546;2022-08-19T01:11:10;18.50;99.90
17986;DHT22;9118;48.122;11.546;2022-08-19T01:13:37;18.50;99.90
17986;DHT22;9118;48.122;11.546;2022-08-19T01:16:07;18.50;99.90
17986;DHT22;9118;48.122;11.546;2022-08-19T01:18:40;18.40;99.90
17986;DHT22;9118;48.122;11.546;2022-08-19T01:21:11;18.30;99.90
17986;DHT22;9118;48.122;11.546;2022-08-19T01:23:42;18.30;99.90
17986;DHT22;9118;48.122;11.546;2022-08-19T01:26:11;18.30;99.90
17986;DHT22;9118;48.122;11.546;2022-08-19T01:28:38;18.20;99.90
17986;DHT22;9118;48.122;11.546;2022-08-19T01:31:06;18.20;99.90
17986;DHT22;9118;48.122;11.546;2022-08-19T01:33:33;18.30;99.90
17986;DHT22;9118;48.122;11.546;2022-08-19T01:36:06;18.30;99.90
17986;DHT22;9118;48.122;11.546;2022-08-19T01:38:36;18.30;99.90
17986;DHT22;9118;48.122;11.546;2022-08-19T01:41:05;18.40;99.90
17986;DHT22;9118;48.122;11.546;2022-08-19T01:43:33;18.50;99.90
17986;DHT22;9118;48.122;11.546;2022-08-19T01:46:00;18.50;99.90
17986;DHT22;9118;48.122;11.546;2022-08-19T01:48:33;18.60;99.90
17986;DHT22;9118;48.122;11.546;2022-08-19T01:51:01;18.60;99.90
17986;DHT22;9118;48.122;11.546;2022-08-19T01:53:28;18.60;99.90
17986;DHT22;9118;48.122;11.546;2022-08-19T01:55:55;18.70;99.90
17986;DHT22;9118;48.122;11.546;2022-08-19T01:58:27;18.70;99.90
17986;DHT22;9118;48.122;11.546;2022-08-19T02:00:56;18.70;99.90
17986;DHT22;9118;48.122;11.546;2022-08-19T02:03:23;18.70;99.90
17986;DHT22;9118;48.122;11.546;2022-08-19T02:05:55;18.70;99.90
17986;DHT22;9118;48.122;11.546;2022-08-19T02:08:23;18.80;99.90
17986;DHT22;9118;48.122;11.546;2022-08-19T02:10:50;18.80;99.90
17986;DHT22;9118;48.122;11.546;2022-08-19T02:13:17;18.70;99.90
17986;DHT22;9118;48.122;11.546;2022-08-19T02:15:45;18.80;99.90
17986;DHT22;9118;48.122;11.546;2022-08-19T02:18:12;18.70;99.90
17986;DHT22;9118;48.122;11.546;2022-08-19T02:20:40;18.70;99.90
17986;DHT22;9118;48.122;11.546;2022-08-19T02:23:08;18.80;99.90
17986;DHT22;9118;48.122;11.546;2022-08-19T02:25:36;18.70;99.90
17986;DHT22;9118;48.122;11.546;2022-08-19T02:28:03;18.80;99.90
17986;DHT22;9118;48.122;11.546;2022-08-19T02:30:30;18.80;99.90
17986;DHT22;9118;48.122;11.546;2022-08-19T02:32:59;18.80;99.90
17986;DHT22;9118;48.122;11.546;2022-08-19T02:35:26;18.80;99.90
17986;DHT22;9118;48.122;11.546;2022-08-19T02:37:53;18.80;99.90
17986;DHT22;9118;48.122;11.546;2022-08-19T02:40:37;18.80;99.90
17986;DHT22;9118;48.122;11.546;2022-08-19T02:43:05;18.80;99.90
17986;DHT22;9118;48.122;11.546;2022-08-19T02:45:34;18.80;99.90
17986;DHT22;9118;48.122;11.546;2022-08-19T02:48:04;18.80;99.90
17986;DHT22;9118;48.122;11.546;2022-08-19T02:50:31;18.70;99.90
17986;DHT22;9118;48.122;11.546;2022-08-19T02:52:58;18.60;99.90
17986;DHT22;9118;48.122;11.546;2022-08-19T02:55:25;18.60;99.90
17986;DHT22;9118;48.122;11.546;2022-08-19T02:57:52;18.50;99.90
17986;DHT22;9118;48.122;11.546;2022-08-19T03:00:19;18.40;99.90
17986;DHT22;9118;48.122;11.546;2022-08-19T03:02:46;18.40;99.90
17986;DHT22;9118;48.122;11.546;2022-08-19T03:05:15;18.40;99.90
17986;DHT22;9118;48.122;11.546;2022-08-19T03:07:43;18.40;99.90
17986;DHT22;9118;48.122;11.546;2022-08-19T03:10:10;18.40;99.90
17986;DHT22;9118;48.122;11.546;2022-08-19T03:12:38;18.30;99.90
17986;DHT22;9118;48.122;11.546;2022-08-19T03:15:07;18.40;99.90
17986;DHT22;9118;48.122;11.546;2022-08-19T03:17:35;18.40;99.90
17986;DHT22;9118;48.122;11.546;2022-08-19T03:20:03;18.40;99.90
17986;DHT22;9118;48.122;11.546;2022-08-19T03:22:32;18.50;99.90
17986;DHT22;9118;48.122;11.546;2022-08-19T03:24:59;18.50;99.90
17986;DHT22;9118;48.122;11.546;2022-08-19T03:27:26;18.50;99.90
17986;DHT22;9118;48.122;11.546;2022-08-19T03:29:53;18.50;99.90
17986;DHT22;9118;48.122;11.546;2022-08-19T03:32:20;18.50;99.90
17986;DHT22;9118;48.122;11.546;2022-08-19T03:34:47;18.60;99.90
17986;DHT22;9118;48.122;11.546;2022-08-19T03:37:16;18.60;99.90
17986;DHT22;9118;48.122;11.546;2022-08-19T03:39:45;18.60;99.90
17986;DHT22;9118;48.122;11.546;2022-08-19T03:42:12;18.60;99.90
17986;DHT22;9118;48.122;11.546;2022-08-19T03:44:39;18.50;99.90
17986;DHT22;9118;48.122;11.546;2022-08-19T03:47:07;18.50;99.90
17986;DHT22;9118;48.122;11.546;2022-08-19T03:49:34;18.50;99.90
17986;DHT22;9118;48.122;11.546;2022-08-19T03:52:02;18.50;99.90
17986;DHT22;9118;48.122;11.546;2022-08-19T03:54:32;18.40;99.90
17986;DHT22;9118;48.122;11.546;2022-08-19T03:57:01;18.40;99.90
17986;DHT22;9118;48.122;11.546;2022-08-19T03:59:31;18.40;99.90
17986;DHT22;9118;48.122;11.546;2022-08-19T04:02:00;18.40;99.90
17986;DHT22;9118;48.122;11.546;2022-08-19T04:04:27;18.40;99.90
17986;DHT22;9118;48.122;11.546;2022-08-19T04:06:55;18.40;99.90
17986;DHT22;9118;48.122;11.546;2022-08-19T04:09:22;18.50;99.90
17986;DHT22;9118;48.122;11.546;2022-08-19T04:11:51;18.40;99.90
17986;DHT22;9118;48.122;11.546;2022-08-19T04:14:23;18.40;99.90
17986;DHT22;9118;48.122;11.546;2022-08-19T04:16:51;18.40;99.90
17986;DHT22;9118;48.122;11.546;2022-08-19T04:19:19;18.40;99.90
17986;DHT22;9118;48.122;11.546;2022-08-19T04:21:49;18.40;99.90
17986;DHT22;9118;48.122;11.546;2022-08-19T04:24:17;18.30;99.90
17986;DHT22;9118;48.122;11.546;2022-08-19T04:26:45;18.30;99.90
17986;DHT22;9118;48.122;11.546;2022-08-19T04:29:15;18.30;99.90
17986;DHT22;9118;48.122;11.546;2022-08-19T04:31:45;18.40;99.90
17986;DHT22;9118;48.122;11.546;2022-08-19T04:34:14;18.40;99.90
17986;DHT22;9118;48.122;11.546;2022-08-19T04:36:43;18.50;99.90
17986;DHT22;9118;48.122;11.546;2022-08-19T04:39:14;18.50;99.90
17986;DHT22;9118;48.122;11.546;2022-08-19T04:41:42;18.60;99.90
17986;DHT22;9118;48.122;11.546;2022-08-19T04:44:27;18.60;99.90
17986;DHT22;9118;48.122;11.546;2022-08-19T04:46:57;18.60;99.90
17986;DHT22;9118;48.122;11.546;2022-08-19T04:49:25;18.60;99.90
17986;DHT22;9118;48.122;11.546;2022-08-19T04:51:53;18.70;99.90
17986;DHT22;9118;48.122;11.546;2022-08-19T04:54:21;18.70;99.90
17986;DHT22;9118;48.122;11.546;2022-08-19T04:56:48;18.70;99.90
17986;DHT22;9118;48.122;11.546;2022-08-19T04:59:18;18.70;99.90
17986;DHT22;9118;48.122;11.546;2022-08-19T05:02:00;18.70;99.90
17986;DHT22;9118;48.122;11.546;2022-08-19T05:04:27;18.70;99.90
17986;DHT22;9118;48.122;11.546;2022-08-19T05:06:57;18.80;99.90
17986;DHT22;9118;48.122;11.546;2022-08-19T05:09:24;18.90;99.90
17986;DHT22;9118;48.122;11.546;2022-08-19T05:11:51;18.80;99.90
17986;DHT22;9118;48.122;11.546;2022-08-19T05:14:19;18.80;99.90
17986;DHT22;9118;48.122;11.546;2022-08-19T05:16:47;18.80;99.90
17986;DHT22;9118;48.122;11.546;2022-08-19T05:19:15;18.90;99.90
17986;DHT22;9118;48.122;11.546;2022-08-19T05:22:01;18.90;99.90
17986;DHT22;9118;48.122;11.546;2022-08-19T05:24:45;18.90;99.90
17986;DHT22;9118;48.122;11.546;2022-08-19T05:27:12;18.90;99.90
17986;DHT22;9118;48.122;11.546;2022-08-19T05:29:39;18.90;99.90
17986;DHT22;9118;48.122;11.546;2022-08-19T05:32:07;18.90;99.90
17986;DHT22;9118;48.122;11.546;2022-08-19T05:34:37;19.00;99.90
17986;DHT22;9118;48.122;11.546;2022-08-19T05:37:05;18.90;99.90
17986;DHT22;9118;48.122;11.546;2022-08-19T05:39:35;18.90;99.90
17986;DHT22;9118;48.122;11.546;2022-08-19T05:42:05;18.90;99.90
17986;DHT22;9118;48.122;11.546;2022-08-19T05:44:34;19.00;99.90
17986;DHT22;9118;48.122;11.546;2022-08-19T05:47:03;19.00;99.90
17986;DHT22;9118;48.122;11.546;2022-08-19T05:49:32;19.00;99.90
17986;DHT22;9118;48.122;11.546;2022-08-19T05:52:04;19.00;99.90
17986;DHT22;9118;48.122;11.546;2022-08-19T05:54:31;19.00;99.90
17986;DHT22;9118;48.122;11.546;2022-08-19T05:57:00;19.00;99.90
17986;DHT22;9118;48.122;11.546;2022-08-19T05:59:28;19.00;99.90
17986;DHT22;9118;48.122;11.546;2022-08-19T06:01:55;19.10;99.90
17986;DHT22;9118;48.122;11.546;2022-08-19T06:04:26;19.10;99.90
17986;DHT22;9118;48.122;11.546;2022-08-19T06:06:54;19.10;99.90
17986;DHT22;9118;48.122;11.546;2022-08-19T06:09:24;19.10;99.90
17986;DHT22;9118;48.122;11.546;2022-08-19T06:11:53;19.10;99.90
17986;DHT22;9118;48.122;11.546;2022-08-19T06:14:23;19.10;99.90
17986;DHT22;9118;48.122;11.546;2022-08-19T06:16:56;19.10;99.90
17986;DHT22;9118;48.122;11.546;2022-08-19T06:19:28;19.00;99.90
17986;DHT22;9118;48.122;11.546;2022-08-19T06:21:56;19.00;99.90
17986;DHT22;9118;48.122;11.546;2022-08-19T06:24:28;19.00;99.90
17986;DHT22;9118;48.122;11.546;2022-08-19T06:26:57;19.00;99.90
17986;DHT22;9118;48.122;11.546;2022-08-19T06:29:26;19.00;99.90
17986;DHT22;9118;48.122;11.546;2022-08-19T06:31:59;19.00;99.90
17986;DHT22;9118;48.122;11.546;2022-08-19T06:34:27;18.90;99.90
17986;DHT22;9118;48.122;11.546;2022-08-19T06:36:56;18.90;99.90
17986;DHT22;9118;48.122;11.546;2022-08-19T06:39:28;19.00;99.90
17986;DHT22;9118;48.122;11.546;2022-08-19T06:41:58;19.10;99.90
17986;DHT22;9118;48.122;11.546;2022-08-19T06:44:27;19.10;99.90
17986;DHT22;9118;48.122;11.546;2022-08-19T06:46:55;19.20;99.90
17986;DHT22;9118;48.122;11.546;2022-08-19T06:49:23;19.00;99.90
17986;DHT22;9118;48.122;11.546;2022-08-19T06:51:50;19.00;99.90
17986;DHT22;9118;48.122;11.546;2022-08-19T06:54:18;18.90;99.90
17986;DHT22;9118;48.122;11.546;2022-08-19T06:56:47;18.90;99.90
17986;DHT22;9118;48.122;11.546;2022-08-19T06:59:16;18.80;99.90
17986;DHT22;9118;48.122;11.546;2022-08-19T07:01:46;18.90;99.90
17986;DHT22;9118;48.122;11.546;2022-08-19T07:04:16;18.80;99.90
17986;DHT22;9118;48.122;11.546;2022-08-19T07:06:44;18.90;99.90
17986;DHT22;9118;48.122;11.546;2022-08-19T07:09:13;18.90;99.90
17986;DHT22;9118;48.122;11.546;2022-08-19T07:11:43;18.90;99.90
17986;DHT22;9118;48.122;11.546;2022-08-19T07:14:12;18.90;99.90
17986;DHT22;9118;48.122;11.546;2022-08-19T07:16:41;18.90;99.90
17986;DHT22;9118;48.122;11.546;2022-08-19T07:19:08;18.90;99.90
17986;DHT22;9118;48.122;11.546;2022-08-19T07:21:35;18.90;99.90
17986;DHT22;9118;48.122;11.546;2022-08-19T07:24:03;18.90;99.90
17986;DHT22;9118;48.122;11.546;2022-08-19T07:26:33;18.90;99.90
17986;DHT22;9118;48.122;11.546;2022-08-19T07:29:00;18.90;99.90
17986;DHT22;9118;48.122;11.546;2022-08-19T07:31:28;19.00;99.90
17986;DHT22;9118;48.122;11.546;2022-08-19T07:33:56;19.00;99.90
17986;DHT22;9118;48.122;11.546;2022-08-19T07:36:27;19.10;99.90
17986;DHT22;9118;48.122;11.546;2022-08-19T07:38:58;19.10;99.90
17986;DHT22;9118;48.122;11.546;2022-08-19T07:41:28;19.20;99.90
17986;DHT22;9118;48.122;11.546;2022-08-19T07:43:58;19.30;99.90
17986;DHT22;9118;48.122;11.546;2022-08-19T07:46:30;19.40;99.90
17986;DHT22;9118;48.122;11.546;2022-08-19T07:48:58;19.40;99.90
17986;DHT22;9118;48.122;11.546;2022-08-19T07:51:26;19.40;99.90
17986;DHT22;9118;48.122;11.546;2022-08-19T07:53:53;19.50;99.90
17986;DHT22;9118;48.122;11.546;2022-08-19T07:56:21;19.50;99.90
17986;DHT22;9118;48.122;11.546;2022-08-19T07:58:50;19.80;99.90
17986;DHT22;9118;48.122;11.546;2022-08-19T08:01:20;19.50;99.90
17986;DHT22;9118;48.122;11.546;2022-08-19T08:03:55;19.50;99.90
17986;DHT22;9118;48.122;11.546;2022-08-19T08:06:52;19.50;99.90
17986;DHT22;9118;48.122;11.546;2022-08-19T08:09:39;19.40;99.90
17986;DHT22;9118;48.122;11.546;2022-08-19T08:12:08;19.40;99.90
17986;DHT22;9118;48.122;11.546;2022-08-19T08:14:42;19.40;99.90
17986;DHT22;9118;48.122;11.546;2022-08-19T08:17:11;19.40;99.90
17986;DHT22;9118;48.122;11.546;2022-08-19T08:19:41;19.20;99.90
17986;DHT22;9118;48.122;11.546;2022-08-19T08:22:09;19.20;99.90
17986;DHT22;9118;48.122;11.546;2022-08-19T08:25:01;19.20;99.90
17986;DHT22;9118;48.122;11.546;2022-08-19T08:27:28;19.30;99.90
17986;DHT22;9118;48.122;11.546;2022-08-19T08:29:56;19.30;99.90
17986;DHT22;9118;48.122;11.546;2022-08-19T08:32:24;19.40;99.90
17986;DHT22;9118;48.122;11.546;2022-08-19T08:34:52;19.30;99.90
17986;DHT22;9118;48.122;11.546;2022-08-19T08:37:19;19.30;99.90
17986;DHT22;9118;48.122;11.546;2022-08-19T08:39:47;19.30;99.90
17986;DHT22;9118;48.122;11.546;2022-08-19T08:42:22;19.30;99.90
17986;DHT22;9118;48.122;11.546;2022-08-19T08:44:57;19.30;99.90
17986;DHT22;9118;48.122;11.546;2022-08-19T08:47:29;19.30;99.90
17986;DHT22;9118;48.122;11.546;2022-08-19T08:50:05;19.20;99.90
17986;DHT22;9118;48.122;11.546;2022-08-19T08:52:36;19.20;99.90
17986;DHT22;9118;48.122;11.546;2022-08-19T08:55:07;19.20;99.90
17986;DHT22;9118;48.122;11.546;2022-08-19T08:57:39;19.20;99.90
17986;DHT22;9118;48.122;11.546;2022-08-19T09:00:15;19.20;99.90
17986;DHT22;9118;48.122;11.546;2022-08-19T09:02:44;19.20;99.90
17986;DHT22;9118;48.122;11.546;2022-08-19T09:05:13;19.20;99.90
17986;DHT22;9118;48.122;11.546;2022-08-19T09:07:46;19.20;99.90
17986;DHT22;9118;48.122;11.546;2022-08-19T09:10:22;19.20;99.90
17986;DHT22;9118;48.122;11.546;2022-08-19T09:12:56;19.30;99.90
17986;DHT22;9118;48.122;11.546;2022-08-19T09:15:31;19.30;99.90
17986;DHT22;9118;48.122;11.546;2022-08-19T09:18:01;19.30;99.90
17986;DHT22;9118;48.122;11.546;2022-08-19T09:20:30;19.40;99.90
17986;DHT22;9118;48.122;11.546;2022-08-19T09:22:58;19.40;99.90
17986;DHT22;9118;48.122;11.546;2022-08-19T09:25:26;19.40;99.90
17986;DHT22;9118;48.122;11.546;2022-08-19T09:27:54;19.50;99.90
17986;DHT22;9118;48.122;11.546;2022-08-19T09:30:25;19.50;99.90
17986;DHT22;9118;48.122;11.546;2022-08-19T09:32:53;19.50;99.90
17986;DHT22;9118;48.122;11.546;2022-08-19T09:35:21;19.60;99.90
17986;DHT22;9118;48.122;11.546;2022-08-19T09:37:50;19.60;99.90
17986;DHT22;9118;48.122;11.546;2022-08-19T09:40:18;19.70;99.90
17986;DHT22;9118;48.122;11.546;2022-08-19T09:42:46;19.70;99.90
17986;DHT22;9118;48.122;11.546;2022-08-19T09:45:14;19.70;99.90
17986;DHT22;9118;48.122;11.546;2022-08-19T09:47:42;19.70;99.90
17986;DHT22;9118;48.122;11.546;2022-08-19T09:50:11;19.80;99.90
17986;DHT22;9118;48.122;11.546;2022-08-19T09:52:39;19.70;99.90
17986;DHT22;9118;48.122;11.546;2022-08-19T09:55:10;19.60;99.90
17986;DHT22;9118;48.122;11.546;2022-08-19T09:57:38;19.50;99.90
17986;DHT22;9118;48.122;11.546;2022-08-19T10:00:08;19.50;99.90
17986;DHT22;9118;48.122;11.546;2022-08-19T10:02:36;19.70;99.90
17986;DHT22;9118;48.122;11.546;2022-08-19T10:05:05;19.60;99.90
17986;DHT22;9118;48.122;11.546;2022-08-19T10:07:49;19.60;99.90
17986;DHT22;9118;48.122;11.546;2022-08-19T10:10:18;19.70;99.90
17986;DHT22;9118;48.122;11.546;2022-08-19T10:12:45;19.70;99.90
17986;DHT22;9118;48.122;11.546;2022-08-19T10:15:13;19.70;99.90
17986;DHT22;9118;48.122;11.546;2022-08-19T10:17:40;19.70;99.90
17986;DHT22;9118;48.122;11.546;2022-08-19T10:20:08;19.70;99.90
17986;DHT22;9118;48.122;11.546;2022-08-19T10:22:35;19.70;99.90
17986;DHT22;9118;48.122;11.546;2022-08-19T10:25:05;19.70;99.90
17986;DHT22;9118;48.122;11.546;2022-08-19T10:27:33;19.80;99.90
17986;DHT22;9118;48.122;11.546;2022-08-19T10:30:00;20.00;99.90
17986;DHT22;9118;48.122;11.546;2022-08-19T10:32:28;20.20;99.90
17986;DHT22;9118;48.122;11.546;2022-08-19T10:34:55;20.30;99.90
17986;DHT22;9118;48.122;11.546;2022-08-19T10:37:22;20.60;99.90
17986;DHT22;9118;48.122;11.546;2022-08-19T10:39:50;20.90;99.90
17986;DHT22;9118;48.122;11.546;2022-08-19T10:42:17;21.10;99.90
17986;DHT22;9118;48.122;11.546;2022-08-19T10:44:46;21.50;99.90
17986;DHT22;9118;48.122;11.546;2022-08-19T10:47:14;21.50;99.90
17986;DHT22;9118;48.122;11.546;2022-08-19T10:49:41;21.30;99.90
17986;DHT22;9118;48.122;11.546;2022-08-19T10:52:27;21.80;99.90
17986;DHT22;9118;48.122;11.546;2022-08-19T10:55:00;21.80;99.90
17986;DHT22;9118;48.122;11.546;2022-08-19T10:57:45;21.90;99.90
17986;DHT22;9118;48.122;11.546;2022-08-19T11:00:14;21.90;99.90
17986;DHT22;9118;48.122;11.546;2022-08-19T11:02:41;21.80;99.90
17986;DHT22;9118;48.122;11.546;2022-08-19T11:05:09;21.60;99.90
17986;DHT22;9118;48.122;11.546;2022-08-19T11:07:40;21.40;99.90
17986;DHT22;9118;48.122;11.546;2022-08-19T11:10:09;21.20;99.90
17986;DHT22;9118;48.122;11.546;2022-08-19T11:12:38;21.10;99.90
17986;DHT22;9118;48.122;11.546;2022-08-19T11:15:07;21.00;99.90
17986;DHT22;9118;48.122;11.546;2022-08-19T11:17:38;20.90;99.90
17986;DHT22;9118;48.122;11.546;2022-08-19T11:20:09;20.90;99.90
17986;DHT22;9118;48.122;11.546;2022-08-19T11:22:38;20.90;99.90
17986;DHT22;9118;48.122;11.546;2022-08-19T11:25:06;20.80;99.90
17986;DHT22;9118;48.122;11.546;2022-08-19T11:27:37;20.80;99.90
17986;DHT22;9118;48.122;11.546;2022-08-19T11:30:06;20.90;99.90
17986;DHT22;9118;48.122;11.546;2022-08-19T11:32:34;21.00;99.90
17986;DHT22;9118;48.122;11.546;2022-08-19T11:35:04;20.90;99.90
17986;DHT22;9118;48.122;11.546;2022-08-19T11:37:36;21.00;99.90
17986;DHT22;9118;48.122;11.546;2022-08-19T11:40:05;21.10;99.90
17986;DHT22;9118;48.122;11.546;2022-08-19T11:42:32;21.20;99.90
17986;DHT22;9118;48.122;11.546;2022-08-19T11:45:16;21.20;99.90
17986;DHT22;9118;48.122;11.546;2022-08-19T11:47:43;21.30;99.90
17986;DHT22;9118;48.122;11.546;2022-08-19T11:50:13;21.40;99.90
17986;DHT22;9118;48.122;11.546;2022-08-19T11:52:40;21.50;99.90
17986;DHT22;9118;48.122;11.546;2022-08-19T11:55:09;21.50;99.90
17986;DHT22;9118;48.122;11.546;2022-08-19T11:57:36;21.50;99.90
17986;DHT22;9118;48.122;11.546;2022-08-19T12:00:07;21.50;99.90
17986;DHT22;9118;48.122;11.546;2022-08-19T12:02:36;21.60;99.90
17986;DHT22;9118;48.122;11.546;2022-08-19T12:05:03;21.50;99.90
17986;DHT22;9118;48.122;11.546;2022-08-19T12:07:32;21.30;99.90
17986;DHT22;9118;48.122;11.546;2022-08-19T12:09:59;21.10;99.90
17986;DHT22;9118;48.122;11.546;2022-08-19T12:12:27;21.00;99.90
17986;DHT22;9118;48.122;11.546;2022-08-19T12:14:54;20.90;99.90
17986;DHT22;9118;48.122;11.546;2022-08-19T12:17:24;20.80;99.90
17986;DHT22;9118;48.122;11.546;2022-08-19T12:19:52;20.70;99.90
17986;DHT22;9118;48.122;11.546;2022-08-19T12:22:19;20.70;99.90
17986;DHT22;9118;48.122;11.546;2022-08-19T12:24:48;20.70;99.90
17986;DHT22;9118;48.122;11.546;2022-08-19T12:27:17;20.80;99.90
17986;DHT22;9118;48.122;11.546;2022-08-19T12:29:44;20.70;99.90
17986;DHT22;9118;48.122;11.546;2022-08-19T12:32:11;21.00;99.90
17986;DHT22;9118;48.122;11.546;2022-08-19T12:34:39;21.00;99.90
17986;DHT22;9118;48.122;11.546;2022-08-19T12:37:07;20.90;99.90
17986;DHT22;9118;48.122;11.546;2022-08-19T12:39:35;20.90;99.90
17986;DHT22;9118;48.122;11.546;2022-08-19T12:42:05;20.80;99.90
17986;DHT22;9118;48.122;11.546;2022-08-19T12:44:32;20.80;99.90
17986;DHT22;9118;48.122;11.546;2022-08-19T12:47:00;21.00;99.90
17986;DHT22;9118;48.122;11.546;2022-08-19T12:49:30;21.20;99.90
17986;DHT22;9118;48.122;11.546;2022-08-19T12:51:59;21.40;99.90
17986;DHT22;9118;48.122;11.546;2022-08-19T12:54:26;21.40;99.90
17986;DHT22;9118;48.122;11.546;2022-08-19T12:56:53;21.50;99.90
17986;DHT22;9118;48.122;11.546;2022-08-19T12:59:23;21.50;99.90
17986;DHT22;9118;48.122;11.546;2022-08-19T13:01:50;21.40;99.90
17986;DHT22;9118;48.122;11.546;2022-08-19T13:04:17;21.70;99.90
17986;DHT22;9118;48.122;11.546;2022-08-19T13:06:45;21.90;99.90
17986;DHT22;9118;48.122;11.546;2022-08-19T13:09:11;21.70;99.90
17986;DHT22;9118;48.122;11.546;2022-08-19T13:11:39;21.80;99.90
17986;DHT22;9118;48.122;11.546;2022-08-19T13:14:06;21.80;99.90
17986;DHT22;9118;48.122;11.546;2022-08-19T13:16:36;21.90;99.90
17986;DHT22;9118;48.122;11.546;2022-08-19T13:19:03;22.10;99.90
17986;DHT22;9118;48.122;11.546;2022-08-19T13:21:31;22.40;99.90
17986;DHT22;9118;48.122;11.546;2022-08-19T13:23:58;22.40;99.90
17986;DHT22;9118;48.122;11.546;2022-08-19T13:26:25;22.50;99.90
17986;DHT22;9118;48.122;11.546;2022-08-19T13:28:52;22.60;99.90
17986;DHT22;9118;48.122;11.546;2022-08-19T13:31:41;22.60;99.90
17986;DHT22;9118;48.122;11.546;2022-08-19T13:34:29;22.60;99.90
17986;DHT22;9118;48.122;11.546;2022-08-19T13:36:57;22.10;99.90
17986;DHT22;9118;48.122;11.546;2022-08-19T13:39:24;22.10;99.90
17986;DHT22;9118;48.122;11.546;2022-08-19T13:41:53;22.10;99.90
17986;DHT22;9118;48.122;11.546;2022-08-19T13:44:20;22.10;99.90
17986;DHT22;9118;48.122;11.546;2022-08-19T13:46:49;21.80;99.90
17986;DHT22;9118;48.122;11.546;2022-08-19T13:49:18;21.80;99.90
17986;DHT22;9118;48.122;11.546;2022-08-19T13:51:46;21.70;99.90
17986;DHT22;9118;48.122;11.546;2022-08-19T13:54:13;21.60;99.90
17986;DHT22;9118;48.122;11.546;2022-08-19T13:56:41;21.40;99.90
17986;DHT22;9118;48.122;11.546;2022-08-19T13:59:08;21.30;99.90
17986;DHT22;9118;48.122;11.546;2022-08-19T14:01:36;21.20;99.90
17986;DHT22;9118;48.122;11.546;2022-08-19T14:04:04;21.10;99.90
17986;DHT22;9118;48.122;11.546;2022-08-19T14:06:32;21.00;99.90
17986;DHT22;9118;48.122;11.546;2022-08-19T14:08:59;21.10;99.90
17986;DHT22;9118;48.122;11.546;2022-08-19T14:11:27;21.30;99.90
17986;DHT22;9118;48.122;11.546;2022-08-19T14:13:54;22.10;99.90
17986;DHT22;9118;48.122;11.546;2022-08-19T14:16:22;22.50;99.90
17986;DHT22;9118;48.122;11.546;2022-08-19T14:18:53;22.40;99.90
17986;DHT22;9118;48.122;11.546;2022-08-19T14:21:23;23.70;99.90
17986;DHT22;9118;48.122;11.546;2022-08-19T14:23:54;25.40;99.90
17986;DHT22;9118;48.122;11.546;2022-08-19T14:26:22;26.80;99.90
17986;DHT22;9118;48.122;11.546;2022-08-19T14:28:50;26.60;99.90
17986;DHT22;9118;48.122;11.546;2022-08-19T14:31:18;25.30;99.90
17986;DHT22;9118;48.122;11.546;2022-08-19T14:33:49;24.50;99.90
17986;DHT22;9118;48.122;11.546;2022-08-19T14:36:20;23.70;99.90
17986;DHT22;9118;48.122;11.546;2022-08-19T14:38:49;23.00;99.90
17986;DHT22;9118;48.122;11.546;2022-08-19T14:41:21;22.40;99.90
17986;DHT22;9118;48.122;11.546;2022-08-19T14:43:51;22.00;99.90
17986;DHT22;9118;48.122;11.546;2022-08-19T14:46:20;21.70;99.90
17986;DHT22;9118;48.122;11.546;2022-08-19T14:48:48;21.60;99.90
17986;DHT22;9118;48.122;11.546;2022-08-19T14:51:18;21.50;99.90
17986;DHT22;9118;48.122;11.546;2022-08-19T14:53:47;21.50;99.90
17986;DHT22;9118;48.122;11.546;2022-08-19T14:56:18;21.40;99.90
17986;DHT22;9118;48.122;11.546;2022-08-19T14:58:45;21.50;99.90
17986;DHT22;9118;48.122;11.546;2022-08-19T15:01:13;21.40;99.90
17986;DHT22;9118;48.122;11.546;2022-08-19T15:03:40;21.30;99.90
17986;DHT22;9118;48.122;11.546;2022-08-19T15:06:09;21.50;99.90
17986;DHT22;9118;48.122;11.546;2022-08-19T15:08:37;21.70;99.90
17986;DHT22;9118;48.122;11.546;2022-08-19T15:11:11;22.50;99.90
17986;DHT22;9118;48.122;11.546;2022-08-19T15:13:40;22.90;99.90
17986;DHT22;9118;48.122;11.546;2022-08-19T15:16:12;22.70;99.90
17986;DHT22;9118;48.122;11.546;2022-08-19T15:18:42;23.20;99.90
17986;DHT22;9118;48.122;11.546;2022-08-19T15:21:11;22.50;99.90
17986;DHT22;9118;48.122;11.546;2022-08-19T15:23:39;21.90;99.90
17986;DHT22;9118;48.122;11.546;2022-08-19T15:26:08;21.40;99.90
17986;DHT22;9118;48.122;11.546;2022-08-19T15:28:36;21.10;99.90
17986;DHT22;9118;48.122;11.546;2022-08-19T15:31:03;20.90;99.90
17986;DHT22;9118;48.122;11.546;2022-08-19T15:33:31;20.90;99.90
17986;DHT22;9118;48.122;11.546;2022-08-19T15:36:01;20.80;99.90
17986;DHT22;9118;48.122;11.546;2022-08-19T15:38:32;20.70;99.90
17986;DHT22;9118;48.122;11.546;2022-08-19T15:41:00;20.50;99.90
17986;DHT22;9118;48.122;11.546;2022-08-19T15:43:50;20.30;99.90